Time;durP1;ratioP1;P1;durP2;ratioP2;P2;SDS_P1;SDS_P2;PMS_P1;PMS_P2;Temp;Humidity;BMP_temperature;BMP_pressure;BME280_temperature;BME280_humidity;BME280_pressure;Samples;Min_cycle;Max_cycle;Signal;HPM_P1;HPM_P2
2022/10/09 00:01:12;;;;;;;6.75;3.17;;;8.50;99.90;;;;;;6225446;23;20054;-77
2022/10/09 00:03:42;;;;;;;10.07;3.33;;;8.60;99.90;;;;;;6226936;23;20047;-79
2022/10/09 00:06:12;;;;;;;9.23;3.35;;;8.50;99.90;;;;;;6227200;23;20058;-79
2022/10/09 00:08:39;;;;;;;7.57;3.67;;;8.60;99.90;;;;;;6227565;23;20020;-80
2022/10/09 00:11:11;;;;;;;8.10;3.40;;;8.50;99.90;;;;;;6202083;23;20012;-79
2022/10/09 00:13:37;;;;;;;7.05;2.83;;;8.60;99.90;;;;;;6226391;23;20062;-78
2022/10/09 00:16:05;;;;;;;10.57;3.30;;;8.60;99.90;;;;;;6251832;23;20008;-78
2022/10/09 00:18:32;;;;;;;11.23;3.50;;;8.60;99.90;;;;;;6252249;23;20011;-78
2022/10/09 00:20:58;;;;;;;12.85;3.72;;;8.70;99.90;;;;;;6226371;23;20020;-79
2022/10/09 00:23:24;;;;;;;4.88;3.25;;;8.70;99.90;;;;;;6227057;23;20306;-79
2022/10/09 00:25:55;;;;;;;6.70;3.55;;;8.80;99.90;;;;;;6201026;23;20008;-78
2022/10/09 00:28:23;;;;;;;10.40;3.88;;;8.90;99.90;;;;;;6251960;23;20266;-79
2022/10/09 00:30:48;;;;;;;8.45;3.50;;;9.30;99.90;;;;;;6251430;23;20023;-78
2022/10/09 00:33:15;;;;;;;7.93;3.25;;;9.10;99.90;;;;;;6251858;23;20020;-79
2022/10/09 00:35:41;;;;;;;10.20;3.65;;;9.10;99.90;;;;;;6202060;23;20016;-80
2022/10/09 00:38:07;;;;;;;5.32;3.28;;;9.00;99.90;;;;;;6202907;23;20020;-80
2022/10/09 00:40:34;;;;;;;9.98;3.35;;;8.90;99.90;;;;;;6201400;23;20027;-80
2022/10/09 00:43:00;;;;;;;8.93;2.63;;;8.90;99.90;;;;;;6202173;23;20071;-80
2022/10/09 00:45:26;;;;;;;13.18;3.03;;;8.80;99.90;;;;;;6227334;23;20360;-79
2022/10/09 00:47:56;;;;;;;8.68;3.22;;;8.70;99.90;;;;;;6201942;23;20024;-80
2022/10/09 00:50:25;;;;;;;11.25;3.22;;;9.00;99.90;;;;;;6252663;23;20044;-80
2022/10/09 00:52:58;;;;;;;8.48;3.60;;;9.10;99.90;;;;;;6252670;23;20079;-79
2022/10/09 00:55:27;;;;;;;12.43;3.15;;;8.90;99.90;;;;;;6253070;23;20043;-80
2022/10/09 00:57:54;;;;;;;9.57;3.40;;;9.20;99.90;;;;;;6252231;23;20020;-80
2022/10/09 01:00:20;;;;;;;9.40;3.58;;;9.10;99.90;;;;;;6227673;23;20023;-80
2022/10/09 01:02:46;;;;;;;10.82;3.63;;;9.30;99.90;;;;;;6202250;23;20071;-80
2022/10/09 01:05:47;;;;;;;9.20;3.22;;;9.20;99.90;;;;;;6228200;23;20016;-80
2022/10/09 01:08:54;;;;;;;8.20;2.95;;;7.70;99.90;;;;;;6083239;23;20077;-79
2022/10/09 01:11:44;;;;;;;6.95;3.05;;;9.30;99.90;;;;;;6082895;23;20069;-79
2022/10/09 01:14:15;;;;;;;7.57;3.22;;;9.20;99.90;;;;;;6227161;23;20038;-80
2022/10/09 01:16:55;;;;;;;9.38;3.05;;;9.20;99.90;;;;;;6252762;23;20008;-79
2022/10/09 01:19:54;;;;;;;11.63;3.28;;;7.70;99.90;;;;;;6252423;23;20084;-79
2022/10/09 01:23:04;;;;;;;9.00;3.08;;;9.20;99.90;;;;;;6226416;23;20058;-79
2022/10/09 01:25:57;;;;;;;9.77;3.63;;;9.20;99.90;;;;;;6226704;23;20091;-79
2022/10/09 01:28:52;;;;;;;7.88;3.05;;;9.20;99.90;;;;;;6252208;23;20209;-79
2022/10/09 01:31:20;;;;;;;9.32;3.53;;;8.90;99.90;;;;;;6253042;23;20008;-79
2022/10/09 01:33:50;;;;;;;10.48;3.28;;;9.10;99.90;;;;;;6228161;23;20206;-80
2022/10/09 01:36:17;;;;;;;7.07;3.30;;;9.10;99.90;;;;;;6203657;23;20024;-78
2022/10/09 01:38:44;;;;;;;12.65;3.47;;;9.00;99.90;;;;;;6229758;23;20075;-79
2022/10/09 01:41:09;;;;;;;12.27;3.42;;;9.00;99.90;;;;;;6229953;23;20019;-79
2022/10/09 01:43:38;;;;;;;13.90;3.75;;;9.10;99.90;;;;;;6229410;23;20019;-79
2022/10/09 01:46:26;;;;;;;9.82;3.70;;;9.10;99.90;;;;;;6229456;23;20023;-79
2022/10/09 01:49:17;;;;;;;9.48;3.40;;;9.10;99.90;;;;;;6254534;23;20044;-78
2022/10/09 01:51:56;;;;;;;8.85;3.20;;;10.00;99.90;;;;;;6154174;23;20039;-79
2022/10/09 01:54:33;;;;;;;7.85;3.42;;;8.70;99.90;;;;;;6254926;23;20016;-78
2022/10/09 02:00:57;;;;;;;6.55;3.22;;;8.60;99.90;;;;;;6108197;23;20018;-79
2022/10/09 02:03:24;;;;;;;11.35;2.90;;;6.70;99.90;;;;;;6090474;23;20243;-79
2022/10/09 02:05:53;;;;;;;9.18;2.90;;;8.50;99.90;;;;;;6187233;23;20030;-79
2022/10/09 02:08:20;;;;;;;9.75;3.08;;;8.60;99.90;;;;;;6254384;23;20361;-79
2022/10/09 02:10:49;;;;;;;10.32;3.75;;;8.50;99.90;;;;;;6253698;23;20012;-78
2022/10/09 02:13:16;;;;;;;9.85;3.50;;;8.60;99.90;;;;;;6229306;23;20031;-79
2022/10/09 02:15:51;;;;;;;9.13;2.95;;;8.70;99.90;;;;;;6229088;23;20012;-79
2022/10/09 02:18:31;;;;;;;7.20;3.30;;;8.70;99.90;;;;;;6254534;23;20039;-79
2022/10/09 02:21:07;;;;;;;9.55;3.08;;;8.80;99.90;;;;;;6253943;23;20019;-79
2022/10/09 02:23:35;;;;;;;5.15;3.15;;;8.70;99.90;;;;;;6229056;23;20110;-79
2022/10/09 02:26:01;;;;;;;7.90;3.30;;;8.80;99.90;;;;;;6203967;23;20070;-79
2022/10/09 02:28:27;;;;;;;8.65;3.10;;;8.70;99.90;;;;;;6203903;23;20013;-79
2022/10/09 02:31:00;;;;;;;7.10;3.22;;;8.80;99.90;;;;;;6228799;23;20008;-79
2022/10/09 02:33:31;;;;;;;9.73;3.55;;;8.60;99.90;;;;;;6229132;23;20067;-78
2022/10/09 02:35:56;;;;;;;11.90;3.42;;;8.80;99.90;;;;;;6227992;23;20322;-79
2022/10/09 02:38:22;;;;;;;10.40;3.85;;;8.80;99.90;;;;;;6229466;23;20012;-79
2022/10/09 02:40:48;;;;;;;9.10;3.30;;;8.70;99.90;;;;;;6228924;23;20311;-80
2022/10/09 02:43:13;;;;;;;6.95;3.45;;;8.70;99.90;;;;;;6204301;23;20012;-79
2022/10/09 02:45:39;;;;;;;7.72;3.58;;;8.70;99.90;;;;;;6227893;23;20046;-79
2022/10/09 02:48:05;;;;;;;7.82;3.40;;;8.50;99.90;;;;;;6253745;23;20179;-80
2022/10/09 02:50:30;;;;;;;14.38;4.70;;;10.50;99.90;;;;;;6203963;23;20014;-79
2022/10/09 02:52:56;;;;;;;8.93;3.67;;;8.60;99.90;;;;;;6178927;23;20093;-80
2022/10/09 02:55:22;;;;;;;8.18;4.30;;;8.70;99.90;;;;;;6179413;23;20008;-79
2022/10/09 02:57:47;;;;;;;10.00;4.10;;;9.90;99.90;;;;;;6254002;23;20393;-80
2022/10/09 03:00:13;;;;;;;8.82;3.60;;;8.80;99.90;;;;;;6228976;23;20012;-79
2022/10/09 03:02:39;;;;;;;11.07;5.15;;;8.70;99.90;;;;;;6203985;23;20020;-80
2022/10/09 03:05:19;;;;;;;10.05;4.35;;;8.60;99.90;;;;;;6203704;23;20012;-80
2022/10/09 03:07:54;;;;;;;8.13;3.75;;;8.50;99.90;;;;;;6232730;23;20317;-79
2022/10/09 03:10:20;;;;;;;10.25;3.78;;;8.60;99.90;;;;;;6204008;23;20016;-80
2022/10/09 03:12:46;;;;;;;9.13;3.80;;;8.60;99.90;;;;;;6203360;23;20016;-80
2022/10/09 03:15:12;;;;;;;8.80;3.88;;;8.40;99.90;;;;;;6228854;23;20030;-80
2022/10/09 03:17:38;;;;;;;7.05;4.38;;;8.40;99.90;;;;;;6229011;23;20054;-80
2022/10/09 03:20:05;;;;;;;9.88;3.88;;;8.50;99.90;;;;;;6203083;23;20020;-79
2022/10/09 03:22:31;;;;;;;9.40;3.88;;;8.60;99.90;;;;;;6254226;23;20016;-80
2022/10/09 03:24:57;;;;;;;7.45;3.35;;;8.30;99.90;;;;;;6253714;23;20062;-80
2022/10/09 03:27:22;;;;;;;5.93;3.25;;;8.30;99.90;;;;;;6228820;23;20020;-80
2022/10/09 03:29:48;;;;;;;11.68;3.55;;;8.40;99.90;;;;;;6228241;23;20302;-80
2022/10/09 03:32:14;;;;;;;7.68;3.67;;;8.30;99.90;;;;;;6203960;23;20015;-81
2022/10/09 03:34:39;;;;;;;5.20;3.83;;;8.50;99.90;;;;;;6254059;23;20024;-80
2022/10/09 03:37:05;;;;;;;6.97;3.45;;;8.50;99.90;;;;;;6253704;23;20020;-80
2022/10/09 03:39:33;;;;;;;9.93;3.45;;;8.30;99.90;;;;;;6228815;23;20007;-80
2022/10/09 03:41:59;;;;;;;7.55;3.47;;;8.30;99.90;;;;;;6253507;23;20031;-80
2022/10/09 03:44:24;;;;;;;7.60;3.55;;;8.50;99.90;;;;;;6178604;23;20008;-80
2022/10/09 03:46:51;;;;;;;8.27;3.45;;;8.50;99.90;;;;;;6252610;23;20008;-81
2022/10/09 03:49:17;;;;;;;10.90;4.18;;;8.20;99.90;;;;;;6228600;23;20447;-79
2022/10/09 03:51:42;;;;;;;8.35;4.00;;;8.20;99.90;;;;;;6228497;23;20034;-79
2022/10/09 03:54:08;;;;;;;6.32;3.75;;;8.40;99.90;;;;;;6253182;23;20242;-80
2022/10/09 03:56:34;;;;;;;12.00;4.97;;;8.20;99.90;;;;;;6179020;23;20226;-79
2022/10/09 03:59:00;;;;;;;6.20;4.03;;;8.40;99.90;;;;;;6253736;23;20012;-80
2022/10/09 04:01:25;;;;;;;11.32;4.50;;;8.40;99.90;;;;;;6203494;23;20035;-80
2022/10/09 04:03:51;;;;;;;8.90;3.72;;;8.40;99.90;;;;;;6202983;23;20015;-81
2022/10/09 04:06:16;;;;;;;12.25;5.20;;;8.30;99.90;;;;;;6229138;23;20071;-80
2022/10/09 04:08:45;;;;;;;8.27;4.72;;;8.20;99.90;;;;;;6253679;23;20020;-80
2022/10/09 04:11:10;;;;;;;10.02;4.60;;;8.30;99.90;;;;;;6227144;23;20016;-79
2022/10/09 04:13:39;;;;;;;7.50;4.78;;;8.30;99.90;;;;;;6227874;23;20023;-81
2022/10/09 04:16:11;;;;;;;9.52;5.05;;;8.50;99.90;;;;;;6202753;23;20012;-80
2022/10/09 04:18:41;;;;;;;8.35;4.80;;;8.30;99.90;;;;;;6204138;23;20027;-79
2022/10/09 04:21:07;;;;;;;8.10;5.47;;;8.30;99.90;;;;;;6227942;23;20060;-80
2022/10/09 04:23:36;;;;;;;7.88;4.90;;;8.80;99.90;;;;;;6228191;23;20011;-80
2022/10/09 04:26:02;;;;;;;11.65;5.50;;;8.30;99.90;;;;;;6227445;23;20012;-80
2022/10/09 04:28:29;;;;;;;11.20;6.28;;;6.50;99.90;;;;;;6253324;23;20306;-79
2022/10/09 04:30:58;;;;;;;7.78;4.82;;;8.50;99.90;;;;;;6227031;23;20008;-79
2022/10/09 04:33:28;;;;;;;11.93;6.18;;;9.00;99.90;;;;;;6227974;23;20050;-80
2022/10/09 04:35:55;;;;;;;10.20;5.65;;;8.10;99.90;;;;;;6252483;23;20020;-78
2022/10/09 04:38:32;;;;;;;12.75;6.13;;;8.30;99.90;;;;;;6227474;23;20012;-78
2022/10/09 04:41:40;;;;;;;12.52;5.75;;;6.70;99.90;;;;;;6226597;23;20080;-78
2022/10/09 04:44:06;;;;;;;10.88;6.30;;;8.50;99.90;;;;;;6220077;23;20066;-78
2022/10/09 04:46:31;;;;;;;14.35;6.13;;;8.30;99.90;;;;;;6252401;23;20079;-78
2022/10/09 04:48:57;;;;;;;11.00;6.57;;;8.20;99.90;;;;;;6226587;23;20026;-78
2022/10/09 04:51:23;;;;;;;12.25;6.60;;;8.30;99.90;;;;;;6202464;23;20011;-78
2022/10/09 04:53:48;;;;;;;10.57;6.63;;;8.30;99.90;;;;;;6251972;23;20159;-78
2022/10/09 04:56:19;;;;;;;10.30;7.10;;;8.10;99.90;;;;;;6226450;23;20008;-78
2022/10/09 04:58:46;;;;;;;13.27;6.78;;;8.40;99.90;;;;;;6252388;23;20085;-78
2022/10/09 05:01:16;;;;;;;11.85;6.88;;;8.00;99.90;;;;;;6227083;23;20092;-80
2022/10/09 05:03:42;;;;;;;13.23;7.82;;;6.60;99.90;;;;;;6227383;23;20071;-79
2022/10/09 05:06:09;;;;;;;11.48;7.10;;;8.10;99.90;;;;;;6203066;23;20023;-80
2022/10/09 05:08:37;;;;;;;15.60;8.65;;;8.20;99.90;;;;;;6228031;23;20324;-78
2022/10/09 05:11:12;;;;;;;15.48;7.65;;;8.10;99.90;;;;;;6226852;23;20020;-79
2022/10/09 05:13:40;;;;;;;9.65;7.50;;;8.10;99.90;;;;;;6252729;23;20023;-80
2022/10/09 05:16:09;;;;;;;13.38;7.47;;;8.20;99.90;;;;;;6226797;23;20016;-79
2022/10/09 05:18:39;;;;;;;12.88;8.32;;;9.60;99.90;;;;;;6227776;23;20008;-80
2022/10/09 05:21:05;;;;;;;12.65;7.45;;;7.90;99.90;;;;;;6251547;23;20378;-78
2022/10/09 05:23:34;;;;;;;13.93;8.00;;;8.00;99.90;;;;;;6201947;23;20020;-78
2022/10/09 05:26:13;;;;;;;13.32;7.97;;;8.00;99.90;;;;;;6251633;23;20043;-76
2022/10/09 05:28:40;;;;;;;10.15;7.57;;;8.10;99.90;;;;;;6252560;23;20023;-76
2022/10/09 05:31:06;;;;;;;14.07;8.15;;;8.10;99.90;;;;;;6252184;23;20050;-77
2022/10/09 05:33:33;;;;;;;13.40;8.25;;;8.10;99.90;;;;;;6226803;23;20230;-76
2022/10/09 05:36:01;;;;;;;13.75;7.97;;;8.10;99.90;;;;;;6251654;23;20018;-77
2022/10/09 05:38:27;;;;;;;12.55;7.65;;;7.90;99.90;;;;;;6252218;23;20020;-78
2022/10/09 05:40:56;;;;;;;11.95;7.85;;;7.90;99.90;;;;;;6252352;23;20054;-77
2022/10/09 05:43:27;;;;;;;12.15;8.07;;;8.20;99.90;;;;;;6227175;23;20047;-78
2022/10/09 05:46:28;;;;;;;16.55;8.07;;;8.00;99.90;;;;;;6224342;23;20019;-77
2022/10/09 05:48:59;;;;;;;13.07;7.95;;;7.80;99.90;;;;;;6226196;23;20039;-77
2022/10/09 05:51:30;;;;;;;15.85;8.32;;;8.00;99.90;;;;;;6251349;23;20201;-77
2022/10/09 05:53:56;;;;;;;11.52;7.70;;;7.90;99.90;;;;;;6225649;23;20172;-77
2022/10/09 05:56:30;;;;;;;14.10;8.70;;;7.80;99.90;;;;;;6223631;23;20202;-76
2022/10/09 05:58:59;;;;;;;13.10;7.57;;;8.80;99.90;;;;;;6251131;23;20102;-78
2022/10/09 06:01:29;;;;;;;10.77;7.10;;;8.00;99.90;;;;;;6252607;23;20246;-77
2022/10/09 06:03:57;;;;;;;13.98;7.28;;;7.90;99.90;;;;;;6226607;23;20012;-79
2022/10/09 06:06:28;;;;;;;11.73;8.52;;;8.00;99.90;;;;;;6227338;23;20027;-81
2022/10/09 06:08:54;;;;;;;10.73;6.97;;;8.30;99.90;;;;;;6226801;23;20229;-79
2022/10/09 06:11:30;;;;;;;12.23;7.80;;;8.20;99.90;;;;;;6227502;23;20310;-78
2022/10/09 06:14:00;;;;;;;9.18;6.75;;;8.20;99.90;;;;;;6253184;23;20238;-79
2022/10/09 06:16:28;;;;;;;11.85;7.15;;;8.00;99.90;;;;;;6227819;23;20027;-79
2022/10/09 06:18:55;;;;;;;11.45;7.05;;;8.20;99.90;;;;;;6252219;23;20012;-78
2022/10/09 06:21:21;;;;;;;12.32;6.82;;;8.10;99.90;;;;;;6227489;23;20048;-78
2022/10/09 06:23:51;;;;;;;13.93;7.97;;;9.20;99.90;;;;;;6252212;23;20202;-78
2022/10/09 06:26:18;;;;;;;11.00;7.28;;;8.10;99.90;;;;;;6228659;23;20222;-78
2022/10/09 06:28:44;;;;;;;11.50;7.70;;;8.40;99.90;;;;;;6228985;23;20012;-79
2022/10/09 06:31:14;;;;;;;15.85;7.95;;;8.30;99.90;;;;;;6228552;23;20004;-79
2022/10/09 06:33:41;;;;;;;14.20;7.57;;;8.40;99.90;;;;;;6254043;23;20020;-79
2022/10/09 06:36:13;;;;;;;14.35;9.23;;;8.30;99.90;;;;;;6252697;23;20422;-78
2022/10/09 06:38:39;;;;;;;13.95;10.10;;;8.60;99.90;;;;;;6254353;23;20019;-78
2022/10/09 06:41:13;;;;;;;18.50;14.18;;;8.50;99.90;;;;;;6253161;23;20035;-78
2022/10/09 06:43:39;;;;;;;21.33;15.70;;;8.90;99.90;;;;;;6254381;23;20035;-78
2022/10/09 06:46:09;;;;;;;25.35;15.18;;;9.10;99.90;;;;;;6203328;23;20248;-78
2022/10/09 06:48:39;;;;;;;23.60;15.07;;;9.00;99.90;;;;;;6253734;23;20012;-78
2022/10/09 06:51:10;;;;;;;18.00;13.43;;;9.40;99.90;;;;;;6227969;23;20072;-79
2022/10/09 06:53:38;;;;;;;19.10;12.07;;;9.50;99.90;;;;;;6228315;23;20015;-78
2022/10/09 06:56:04;;;;;;;20.85;12.82;;;9.60;99.90;;;;;;6226205;23;20016;-77
2022/10/09 06:58:29;;;;;;;19.42;12.35;;;9.50;99.90;;;;;;6253573;23;20035;-78
2022/10/09 07:01:06;;;;;;;15.98;10.52;;;9.80;99.90;;;;;;6254169;23;20015;-79
2022/10/09 07:03:32;;;;;;;16.25;10.60;;;9.60;99.90;;;;;;6253625;23;20063;-78
2022/10/09 07:06:10;;;;;;;15.18;10.32;;;9.70;99.90;;;;;;6202971;23;20241;-78
2022/10/09 07:08:36;;;;;;;13.45;10.00;;;10.00;99.90;;;;;;6228294;23;20012;-78
2022/10/09 07:11:41;;;;;;;14.80;10.32;;;9.80;99.90;;;;;;6253310;23;20067;-79
2022/10/09 07:14:18;;;;;;;11.70;8.68;;;9.80;99.90;;;;;;6157672;23;20016;-77
2022/10/09 07:16:48;;;;;;;11.40;8.07;;;9.20;99.90;;;;;;6251443;23;20055;-78
2022/10/09 07:19:16;;;;;;;10.13;8.05;;;9.90;99.90;;;;;;6252718;23;20214;-78
2022/10/09 07:21:46;;;;;;;12.27;7.60;;;10.10;99.90;;;;;;6228432;23;20039;-77
2022/10/09 07:24:12;;;;;;;10.02;6.60;;;10.10;99.90;;;;;;6227789;23;20012;-78
2022/10/09 07:26:47;;;;;;;10.32;6.78;;;10.00;99.90;;;;;;6227339;23;20012;-78
2022/10/09 07:29:35;;;;;;;8.25;5.72;;;10.20;99.90;;;;;;6252753;23;20012;-78
2022/10/09 07:32:43;;;;;;;7.93;5.65;;;10.00;99.90;;;;;;6229150;23;20072;-78
2022/10/09 07:35:27;;;;;;;8.27;5.40;;;9.90;99.90;;;;;;6206012;23;20016;-79
2022/10/09 07:38:03;;;;;;;7.82;4.78;;;10.00;99.90;;;;;;6224700;23;20357;-77
2022/10/09 07:40:28;;;;;;;7.10;5.07;;;11.80;99.90;;;;;;6252617;23;20278;-77
2022/10/09 07:43:02;;;;;;;6.65;4.43;;;9.90;99.90;;;;;;6227912;23;20051;-78
2022/10/09 07:45:27;;;;;;;7.20;4.68;;;9.40;99.90;;;;;;6252561;23;20047;-78
2022/10/09 07:47:53;;;;;;;10.38;4.85;;;10.00;99.90;;;;;;6226965;23;20302;-78
2022/10/09 07:50:19;;;;;;;7.00;5.00;;;10.20;99.90;;;;;;6227146;23;20569;-77
2022/10/09 07:52:48;;;;;;;9.23;5.20;;;10.00;99.90;;;;;;6227780;23;20008;-79
2022/10/09 07:55:13;;;;;;;8.13;5.07;;;10.00;99.90;;;;;;6226607;23;20016;-78
2022/10/09 07:57:39;;;;;;;9.00;5.50;;;10.20;99.90;;;;;;6253120;23;20027;-79
2022/10/09 08:00:05;;;;;;;8.15;4.70;;;10.10;99.90;;;;;;6227838;23;20067;-76
2022/10/09 08:02:34;;;;;;;9.60;4.90;;;10.30;99.90;;;;;;6203005;23;20062;-79
2022/10/09 08:05:02;;;;;;;5.35;3.90;;;10.30;99.90;;;;;;6228732;23;20018;-79
2022/10/09 08:07:28;;;;;;;6.82;3.72;;;10.20;99.90;;;;;;6227898;23;20198;-79
2022/10/09 08:10:06;;;;;;;7.55;4.38;;;10.30;99.90;;;;;;6227443;23;20008;-81
2022/10/09 08:15:41;;;;;;;6.40;4.40;;;10.30;99.90;;;;;;6234658;23;20026;-77
2022/10/09 08:18:11;;;;;;;9.10;4.28;;;10.50;99.90;;;;;;6223944;23;20050;-77
2022/10/09 08:20:37;;;;;;;5.30;4.32;;;10.60;99.90;;;;;;6225793;23;20042;-79
2022/10/09 08:23:04;;;;;;;9.40;5.00;;;10.70;99.90;;;;;;6224691;23;20048;-78
2022/10/09 08:25:36;;;;;;;7.05;4.40;;;10.70;99.90;;;;;;6225815;23;20016;-78
2022/10/09 08:28:03;;;;;;;6.95;3.85;;;12.00;99.90;;;;;;6250316;23;20047;-78
2022/10/09 08:30:29;;;;;;;7.07;4.20;;;10.90;99.90;;;;;;6225630;23;20043;-78
2022/10/09 08:32:55;;;;;;;8.95;4.53;;;10.80;99.90;;;;;;6251608;23;20012;-78
2022/10/09 08:35:20;;;;;;;5.65;4.05;;;11.10;99.90;;;;;;6176515;23;20019;-79
2022/10/09 08:37:49;;;;;;;7.60;4.50;;;11.10;99.90;;;;;;6226647;23;20020;-80
2022/10/09 08:40:35;;;;;;;6.97;3.13;;;11.10;99.90;;;;;;6226488;23;20019;-79
2022/10/09 08:43:05;;;;;;;7.53;4.43;;;11.20;99.90;;;;;;6252262;23;20471;-78
2022/10/09 08:45:33;;;;;;;8.32;4.25;;;11.30;99.90;;;;;;6201409;23;20020;-79
2022/10/09 08:48:09;;;;;;;6.05;4.32;;;11.30;99.90;;;;;;6226640;23;20019;-77
2022/10/09 08:50:39;;;;;;;7.20;4.28;;;11.50;99.90;;;;;;6251747;23;20031;-80
2022/10/09 08:53:32;;;;;;;8.00;3.90;;;11.70;99.90;;;;;;6226570;23;20008;-77
2022/10/09 08:56:01;;;;;;;7.63;3.78;;;11.50;99.90;;;;;;6252505;23;20008;-78
2022/10/09 08:58:35;;;;;;;7.50;4.03;;;11.60;99.90;;;;;;6252255;23;20039;-79
2022/10/09 09:01:20;;;;;;;9.88;4.05;;;11.60;99.90;;;;;;6227046;23;20203;-78
2022/10/09 09:04:12;;;;;;;6.38;4.00;;;11.80;99.90;;;;;;6252686;23;20063;-79
2022/10/09 09:07:07;;;;;;;7.82;3.55;;;11.80;99.90;;;;;;6251996;23;20232;-78
2022/10/09 09:09:52;;;;;;;5.05;3.05;;;11.90;99.90;;;;;;6226419;23;20012;-78
2022/10/09 09:12:41;;;;;;;6.05;4.72;;;12.00;99.90;;;;;;6251792;23;20059;-78
2022/10/09 09:15:14;;;;;;;8.45;3.67;;;12.30;99.90;;;;;;6252087;23;20036;-78
2022/10/09 09:18:14;;;;;;;6.03;2.88;;;12.30;99.90;;;;;;6226564;23;20012;-79
2022/10/09 09:20:53;;;;;;;4.35;2.67;;;12.30;99.90;;;;;;6219580;23;20195;-79
2022/10/09 09:23:35;;;;;;;5.45;2.80;;;12.30;99.90;;;;;;6251795;23;20022;-78
2022/10/09 09:26:01;;;;;;;7.65;2.85;;;12.40;99.90;;;;;;6252415;23;20016;-79
2022/10/09 09:28:33;;;;;;;4.85;1.92;;;12.60;99.90;;;;;;6251700;23;20027;-78
2022/10/09 09:31:05;;;;;;;6.07;2.90;;;12.70;99.90;;;;;;6225596;23;20008;-78
2022/10/09 09:33:52;;;;;;;6.93;4.15;;;12.70;99.90;;;;;;6251268;23;20024;-79
2022/10/09 09:36:39;;;;;;;4.85;2.45;;;13.00;99.90;;;;;;6226936;23;20245;-79
2022/10/09 09:39:08;;;;;;;7.43;2.40;;;13.00;99.90;;;;;;6252019;23;20019;-78
2022/10/09 09:41:42;;;;;;;3.72;2.00;;;13.10;99.90;;;;;;6251344;23;20027;-77
2022/10/09 09:44:12;;;;;;;6.03;2.50;;;13.20;99.90;;;;;;6252220;23;20206;-79
2022/10/09 09:46:40;;;;;;;7.25;2.67;;;13.50;99.90;;;;;;6250763;23;20030;-79
2022/10/09 09:49:26;;;;;;;5.95;2.15;;;13.60;99.90;;;;;;6252307;23;20020;-79
2022/10/09 09:51:54;;;;;;;6.32;2.55;;;13.70;99.90;;;;;;6251042;23;20050;-79
2022/10/09 09:54:21;;;;;;;7.32;4.10;;;13.50;99.90;;;;;;6251552;23;20321;-79
2022/10/09 09:56:49;;;;;;;6.13;2.70;;;13.90;99.90;;;;;;6252120;23;20047;-80
2022/10/09 09:59:30;;;;;;;4.22;1.90;;;14.10;99.90;;;;;;6229170;23;20012;-80
2022/10/09 10:02:06;;;;;;;8.25;3.10;;;13.90;99.90;;;;;;6227978;23;20058;-79
2022/10/09 10:04:34;;;;;;;7.22;2.40;;;13.80;99.90;;;;;;6253710;23;20024;-78
2022/10/09 10:07:01;;;;;;;7.55;2.70;;;14.00;99.90;;;;;;6202405;23;20273;-78
2022/10/09 10:09:27;;;;;;;4.57;2.15;;;14.00;99.90;;;;;;6225816;23;20074;-78
2022/10/09 10:12:04;;;;;;;4.13;1.70;;;13.90;99.90;;;;;;6251808;23;20016;-79
2022/10/09 10:14:31;;;;;;;5.30;1.95;;;14.00;99.90;;;;;;6251067;23;20058;-78
2022/10/09 10:17:00;;;;;;;4.63;2.42;;;14.00;99.90;;;;;;6226696;23;20008;-79
2022/10/09 10:19:33;;;;;;;2.85;1.60;;;14.00;99.90;;;;;;6226567;23;20098;-79
2022/10/09 10:22:05;;;;;;;10.90;4.93;;;14.00;99.90;;;;;;6252106;23;20040;-78
2022/10/09 10:24:42;;;;;;;6.80;2.88;;;14.00;99.90;;;;;;6251166;23;20020;-77
2022/10/09 10:27:31;;;;;;;5.32;2.30;;;14.20;99.90;;;;;;6252177;23;20020;-79
2022/10/09 10:30:02;;;;;;;8.02;4.07;;;14.20;99.90;;;;;;6201194;23;20020;-80
2022/10/09 10:32:31;;;;;;;4.97;1.92;;;14.20;99.90;;;;;;6226234;23;20070;-78
2022/10/09 10:35:02;;;;;;;5.93;2.10;;;14.20;99.90;;;;;;6226546;23;20028;-78
2022/10/09 10:37:49;;;;;;;7.53;1.80;;;14.30;99.90;;;;;;6226022;23;20012;-79
2022/10/09 10:40:19;;;;;;;3.22;1.80;;;14.30;99.90;;;;;;6252514;23;20071;-80
2022/10/09 10:42:54;;;;;;;6.75;2.40;;;14.30;99.90;;;;;;6227600;23;20019;-79
2022/10/09 10:45:24;;;;;;;;;;;14.40;99.90;;;;;;6253992;23;20298;-79
2022/10/09 10:47:53;;;;;;;9.07;2.22;;;14.40;99.90;;;;;;6252892;23;19912;-79
2022/10/09 10:50:21;;;;;;;6.90;1.95;;;14.30;99.90;;;;;;6227453;23;20016;-78
2022/10/09 10:52:56;;;;;;;4.15;1.88;;;14.30;99.90;;;;;;6227606;23;20044;-78
2022/10/09 10:55:43;;;;;;;8.57;1.75;;;14.20;99.90;;;;;;6227341;23;20008;-79
2022/10/09 10:58:33;;;;;;;7.47;1.88;;;14.40;99.90;;;;;;6227750;23;20043;-79
2022/10/09 11:01:25;;;;;;;7.57;1.90;;;14.30;99.90;;;;;;6227970;23;20019;-80
2022/10/09 11:04:13;;;;;;;3.92;1.67;;;14.40;99.90;;;;;;6227977;23;20016;-78
2022/10/09 11:07:07;;;;;;;4.43;1.20;;;14.40;99.90;;;;;;6227952;23;20068;-80
2022/10/09 11:09:41;;;;;;;4.88;1.40;;;14.30;99.90;;;;;;6253024;23;20065;-80
2022/10/09 11:12:30;;;;;;;;;;;14.40;99.90;;;;;;6229101;23;20071;-80
2022/10/09 11:15:03;;;;;;;4.68;1.80;;;14.50;99.90;;;;;;6212523;23;20121;-80
2022/10/09 11:17:38;;;;;;;6.63;1.63;;;14.40;99.90;;;;;;6228021;23;20241;-79
2022/10/09 11:20:18;;;;;;;3.20;1.55;;;15.80;99.90;;;;;;6228209;23;20562;-79
2022/10/09 11:23:21;;;;;;;4.30;1.55;;;14.50;99.90;;;;;;6252878;23;20071;-79
2022/10/09 11:26:10;;;;;;;7.32;1.70;;;14.50;99.90;;;;;;6252486;23;20027;-75
2022/10/09 11:28:50;;;;;;;3.72;1.40;;;14.70;99.90;;;;;;6226326;23;20019;-75
2022/10/09 11:31:22;;;;;;;4.85;1.77;;;14.70;99.90;;;;;;6226623;23;20078;-77
2022/10/09 11:33:53;;;;;;;5.15;1.45;;;14.50;99.90;;;;;;6251686;23;20047;-76
2022/10/09 11:36:42;;;;;;;3.33;1.35;;;14.50;99.90;;;;;;6227267;23;20023;-78
2022/10/09 11:39:14;;;;;;;4.15;2.15;;;14.50;99.90;;;;;;6253121;23;20020;-78
2022/10/09 11:41:44;;;;;;;2.83;1.23;;;14.50;99.90;;;;;;6253023;23;20012;-79
2022/10/09 11:44:36;;;;;;;5.88;1.33;;;14.70;99.90;;;;;;6227475;23;20026;-80
2022/10/09 11:47:14;;;;;;;3.38;1.90;;;14.70;99.90;;;;;;6228522;23;20243;-79
2022/10/09 11:49:58;;;;;;;5.55;1.58;;;14.60;99.90;;;;;;6252304;23;20015;-79
2022/10/09 11:53:04;;;;;;;4.87;2.03;;;14.50;99.90;;;;;;6252808;23;20015;-78
2022/10/09 11:55:32;;;;;;;6.75;1.70;;;14.50;99.90;;;;;;6171315;23;20011;-78
2022/10/09 11:58:27;;;;;;;2.85;1.10;;;14.60;99.90;;;;;;6228499;23;20198;-80
2022/10/09 12:01:02;;;;;;;;;;;14.50;99.90;;;;;;6206559;23;20389;-79
2022/10/09 12:03:33;;;;;;;5.18;1.38;;;13.70;99.90;;;;;;6252429;23;19955;-79
2022/10/09 12:06:14;;;;;;;3.53;1.40;;;14.60;99.90;;;;;;6227398;23;20012;-77
2022/10/09 12:09:00;;;;;;;7.20;1.35;;;14.50;99.90;;;;;;6226937;23;20012;-78
2022/10/09 12:11:27;;;;;;;3.60;1.30;;;14.60;99.90;;;;;;6231616;23;20012;-79
2022/10/09 12:13:58;;;;;;;5.95;1.63;;;14.60;99.90;;;;;;6252556;23;20099;-79
2022/10/09 12:16:47;;;;;;;5.55;1.52;;;14.60;99.90;;;;;;6252349;23;20361;-78
2022/10/09 12:19:33;;;;;;;6.50;1.35;;;14.60;99.90;;;;;;6183277;23;20551;-80
2022/10/09 12:22:02;;;;;;;5.22;1.20;;;14.60;99.90;;;;;;6251679;23;20055;-78
2022/10/09 12:25:02;;;;;;;4.75;1.55;;;14.60;99.90;;;;;;6252287;23;20055;-79
2022/10/09 12:27:34;;;;;;;4.25;1.35;;;14.60;99.90;;;;;;6251784;23;20012;-79
2022/10/09 12:30:12;;;;;;;2.90;1.30;;;14.50;99.90;;;;;;6226200;23;20008;-73
2022/10/09 12:32:44;;;;;;;5.28;1.50;;;14.50;99.90;;;;;;6251493;23;20020;-78
2022/10/09 12:35:58;;;;;;;4.82;1.52;;;14.60;99.90;;;;;;6226788;23;20027;-80
2022/10/09 12:38:27;;;;;;;3.67;1.27;;;14.50;99.90;;;;;;6214676;23;20018;-77
2022/10/09 12:41:04;;;;;;;4.32;1.50;;;14.60;99.90;;;;;;6252508;23;20016;-77
2022/10/09 12:43:31;;;;;;;4.03;1.77;;;14.60;99.90;;;;;;6226313;23;20012;-79
2022/10/09 12:46:05;;;;;;;5.70;1.40;;;14.70;99.90;;;;;;6227618;23;20011;-80
2022/10/09 12:48:42;;;;;;;4.75;1.98;;;14.70;99.90;;;;;;6227569;23;20066;-82
2022/10/09 12:51:23;;;;;;;4.50;1.30;;;14.80;99.90;;;;;;6252098;23;20016;-82
2022/10/09 12:54:26;;;;;;;;;;;;;;;;;;;;;
2022/10/09 12:57:01;;;;;;;3.83;1.63;;;14.80;99.90;;;;;;6242091;23;20333;-77
2022/10/09 12:59:30;;;;;;;5.35;1.77;;;14.80;99.90;;;;;;6224179;23;20027;-79
2022/10/09 13:01:58;;;;;;;5.60;1.85;;;14.90;99.90;;;;;;6250267;23;20047;-78
2022/10/09 13:04:46;;;;;;;;;;;;;;;;;;;;;
2022/10/09 13:07:20;;;;;;;4.35;1.80;;;16.00;99.90;;;;;;6253064;23;20013;-80
2022/10/09 13:09:46;;;;;;;3.53;1.63;;;14.70;99.90;;;;;;6252357;22;20084;-81
2022/10/09 13:12:24;;;;;;;7.65;1.90;;;15.00;99.90;;;;;;6225897;23;20539;-78
2022/10/09 13:14:50;;;;;;;6.35;1.77;;;15.00;99.90;;;;;;6225130;23;20075;-81
2022/10/09 13:17:31;;;;;;;2.92;1.55;;;14.90;99.90;;;;;;6251459;23;20008;-79
2022/10/09 13:20:03;;;;;;;5.10;1.85;;;14.80;99.90;;;;;;6250607;23;20016;-80
2022/10/09 13:22:30;;;;;;;5.88;1.95;;;14.80;99.90;;;;;;6226016;23;20074;-82
2022/10/09 13:24:58;;;;;;;7.65;2.20;;;14.80;99.90;;;;;;6226046;23;20008;-79
2022/10/09 13:27:30;;;;;;;4.72;1.73;;;14.90;99.90;;;;;;6250058;23;20008;-78
2022/10/09 13:29:56;;;;;;;4.30;2.00;;;14.80;99.90;;;;;;6250611;23;20023;-77